KRFD/RFD METAR and TAF weather

Enter ICAO airport designator
Station Type Date Time Source
KRFD METAR 2018/09/21 22:54 UTC NOAA

KRFD 212254Z 34014G20KT 10SM BKN045 OVC250 17/08 A3014 RMK AO2 SLP204 T01670078


Station Type Date Time Source
KRFD Decoded METAR 2018/09/21 22:54 UTC NOAA

GREATER ROCKFORD AIRPORT, IL, United States (KRFD) 42-12N 89-06W 221M
Sep 21, 2018 - 06:54 PM EDT / 2018.09.21 2254 UTC
Wind: from the NNW (340 degrees) at 16 MPH (14 KT) gusting to 23 MPH (20 KT):0
Visibility: 10 mile(s):0
Sky conditions: overcast
Temperature: 62.1 F (16.7 C)
Dew Point: 46.0 F (7.8 C)
Relative Humidity: 55%
Pressure (altimeter): 30.14 in. Hg (1020 hPa)
ob: KRFD 212254Z 34014G20KT 10SM BKN045 OVC250 17/08 A3014 RMK AO2 SLP204 T01670078
cycle: 23

Station Type Date Time Source
KRFD TAF 2018/09/21 21:59 UTC NOAA

TAF
AMD KRFD 212059Z 2121/2218 32015G24KT P6SM SCT040 BKN250
FM220100 34011KT P6SM SCT040 SCT250
FM220700 03007KT P6SM SCT040 SCT250
FM221500 09007KT P6SM BKN040


Example: see airport list